createdAt,value
2022-08-03T00:02:08.183Z,22.02
2022-08-03T00:04:54.326Z,21.98
2022-08-03T00:07:41.091Z,21.96
2022-08-03T00:10:26.949Z,21.92
2022-08-03T00:13:13.203Z,21.92
2022-08-03T00:15:59.057Z,21.90
2022-08-03T00:18:44.697Z,21.87
2022-08-03T00:21:29.927Z,21.83
2022-08-03T00:24:15.179Z,21.79
2022-08-03T00:27:00.307Z,21.82
2022-08-03T00:29:59.741Z,21.81
2022-08-03T00:32:45.882Z,21.82
2022-08-03T00:35:36.800Z,21.83
2022-08-03T00:38:22.736Z,21.83
2022-08-03T00:41:08.287Z,21.83
2022-08-03T00:43:53.703Z,21.84
2022-08-03T00:46:38.792Z,21.83
2022-08-03T00:49:27.041Z,21.82
2022-08-03T00:52:15.302Z,21.82
2022-08-03T00:55:01.707Z,21.78
2022-08-03T00:57:47.623Z,21.77
2022-08-03T01:00:41.652Z,21.75
2022-08-03T01:03:27.195Z,21.70
2022-08-03T01:06:20.222Z,21.69
2022-08-03T01:09:35.152Z,21.67
2022-08-03T01:12:34.987Z,21.63
2022-08-03T01:15:38.643Z,21.59
2022-08-03T01:18:58.033Z,21.56
2022-08-03T01:22:08.893Z,21.53
2022-08-03T01:25:18.748Z,21.52
2022-08-03T01:28:19.922Z,21.53
2022-08-03T01:31:10.304Z,21.54
2022-08-03T01:34:02.905Z,21.55
2022-08-03T01:36:56.665Z,21.56
2022-08-03T01:39:44.270Z,21.56
2022-08-03T01:42:32.577Z,21.58
2022-08-03T01:45:19.451Z,21.58
2022-08-03T01:48:05.548Z,21.59
2022-08-03T01:50:51.865Z,21.59
2022-08-03T01:53:42.681Z,21.58
2022-08-03T01:56:29.923Z,21.59
2022-08-03T01:59:17.346Z,21.61
2022-08-03T02:02:29.184Z,21.62
2022-08-03T02:05:12.746Z,21.64
2022-08-03T02:07:59.290Z,21.66
2022-08-03T02:10:46.178Z,21.67
2022-08-03T02:13:33.615Z,21.69
2022-08-03T02:16:20.312Z,21.72
2022-08-03T02:19:08.514Z,21.72
2022-08-03T02:21:56.802Z,21.73
2022-08-03T02:24:49.347Z,21.72
2022-08-03T02:27:43.500Z,21.75
2022-08-03T02:30:40.321Z,21.73
2022-08-03T02:33:32.119Z,21.75
2022-08-03T02:36:23.543Z,21.74
2022-08-03T02:39:13.450Z,21.72
2022-08-03T02:42:03.429Z,21.69
2022-08-03T02:44:51.397Z,21.67
2022-08-03T02:47:53.787Z,21.64
2022-08-03T02:50:42.101Z,21.64
2022-08-03T02:53:30.592Z,21.62
2022-08-03T02:56:18.144Z,21.61
2022-08-03T02:59:05.895Z,21.60
2022-08-03T03:01:53.896Z,21.57
2022-08-03T03:04:41.202Z,21.55
2022-08-03T03:07:51.675Z,21.52
2022-08-03T03:10:39.743Z,21.50
2022-08-03T03:13:26.896Z,21.48
2022-08-03T03:16:14.257Z,21.47
2022-08-03T03:19:01.664Z,21.46
2022-08-03T03:21:47.553Z,21.48
2022-08-03T03:24:34.766Z,21.48
2022-08-03T03:27:21.313Z,21.47
2022-08-03T03:30:09.179Z,21.46
2022-08-03T03:32:55.133Z,21.42
2022-08-03T03:35:43.139Z,21.41
2022-08-03T03:38:28.789Z,21.40
2022-08-03T03:41:14.722Z,21.40
2022-08-03T03:44:02.874Z,21.39
2022-08-03T03:46:48.408Z,21.40
2022-08-03T03:49:34.727Z,21.37
2022-08-03T03:52:22.570Z,21.34
2022-08-03T03:55:08.241Z,21.33
2022-08-03T03:57:53.403Z,21.32
2022-08-03T04:00:38.615Z,21.32
2022-08-03T04:03:24.022Z,21.32
2022-08-03T04:06:27.676Z,21.31
2022-08-03T04:09:31.371Z,21.33
2022-08-03T04:12:19.586Z,21.35
2022-08-03T04:15:06.108Z,21.37
2022-08-03T04:17:55.423Z,21.41
2022-08-03T04:20:45.609Z,21.45
2022-08-03T04:23:35.602Z,21.47
2022-08-03T04:26:24.609Z,21.50
2022-08-03T04:29:10.970Z,21.51
2022-08-03T04:31:58.688Z,21.53
2022-08-03T04:34:44.738Z,21.54
2022-08-03T04:37:40.431Z,21.58
2022-08-03T04:40:32.834Z,21.57
2022-08-03T04:43:19.778Z,21.54
2022-08-03T04:46:07.742Z,21.55
2022-08-03T04:48:53.464Z,21.62
2022-08-03T04:51:40.443Z,21.71
2022-08-03T04:54:25.929Z,21.76
2022-08-03T04:57:18.145Z,21.84
2022-08-03T05:00:09.282Z,21.91
2022-08-03T05:02:55.348Z,21.96
2022-08-03T05:05:49.715Z,22.01
2022-08-03T05:08:36.086Z,22.08
2022-08-03T05:11:31.671Z,22.14
2022-08-03T05:14:17.006Z,22.13
2022-08-03T05:17:12.972Z,22.16
2022-08-03T05:19:58.341Z,22.22
2022-08-03T05:22:43.731Z,22.28
2022-08-03T05:25:29.203Z,22.35
2022-08-03T05:28:14.373Z,22.41
2022-08-03T05:30:59.650Z,22.48
2022-08-03T05:33:45.098Z,22.58
2022-08-03T05:36:30.370Z,22.68
2022-08-03T05:39:15.599Z,22.79
2022-08-03T05:42:01.480Z,22.89
2022-08-03T05:44:46.811Z,22.99
2022-08-03T05:47:32.184Z,23.09
2022-08-03T05:50:19.269Z,23.18
2022-08-03T05:53:04.607Z,23.28
2022-08-03T05:55:54.774Z,23.36
2022-08-03T05:58:48.075Z,23.44
2022-08-03T06:01:33.526Z,23.52
2022-08-03T06:04:18.718Z,23.59
2022-08-03T06:07:03.855Z,23.66
2022-08-03T06:10:34.255Z,23.77
2022-08-03T06:12:54.851Z,23.88
2022-08-03T06:15:40.086Z,23.98
2022-08-03T06:18:25.470Z,24.06
2022-08-03T06:21:15.663Z,24.12
2022-08-03T06:24:01.303Z,24.20
2022-08-03T06:26:47.697Z,24.25
2022-08-03T06:29:32.980Z,24.36
2022-08-03T06:32:18.764Z,24.44
2022-08-03T06:35:09.993Z,24.54
2022-08-03T06:37:55.623Z,24.62
2022-08-03T06:40:41.127Z,24.70
2022-08-03T06:43:26.566Z,24.81
2022-08-03T06:46:12.136Z,24.89
2022-08-03T06:48:57.199Z,25.00
2022-08-03T06:52:03.051Z,25.06
2022-08-03T06:54:47.492Z,25.15
2022-08-03T06:57:33.028Z,25.20
2022-08-03T07:00:19.144Z,25.28
2022-08-03T07:03:04.432Z,25.37
2022-08-03T07:05:50.894Z,25.46
2022-08-03T07:08:37.291Z,25.53
2022-08-03T07:11:22.693Z,25.63
2022-08-03T07:14:08.154Z,25.73
2022-08-03T07:16:53.444Z,25.82
2022-08-03T07:19:38.790Z,25.85
2022-08-03T07:22:24.088Z,25.92
2022-08-03T07:25:12.315Z,26.00
2022-08-03T07:27:57.465Z,26.08
2022-08-03T07:30:43.578Z,26.18
2022-08-03T07:33:28.660Z,26.25
2022-08-03T07:36:14.006Z,26.36
2022-08-03T07:38:59.197Z,26.44
2022-08-03T07:41:45.786Z,26.52
2022-08-03T07:44:31.039Z,26.53
2022-08-03T07:47:22.785Z,26.55
2022-08-03T07:50:08.979Z,26.63
2022-08-03T07:52:56.031Z,26.70
2022-08-03T07:55:41.218Z,26.81
2022-08-03T07:58:26.787Z,26.88
2022-08-03T08:01:12.009Z,26.97
2022-08-03T08:04:00.512Z,27.04
2022-08-03T08:06:46.507Z,27.09
2022-08-03T08:09:31.792Z,27.16
2022-08-03T08:12:17.255Z,27.18
2022-08-03T08:15:07.747Z,27.26
2022-08-03T08:17:56.438Z,27.30
2022-08-03T08:20:41.704Z,27.33
2022-08-03T08:23:41.698Z,27.45
2022-08-03T08:26:37.111Z,27.55
2022-08-03T08:29:23.318Z,27.62
2022-08-03T08:32:09.002Z,27.67
2022-08-03T08:34:54.509Z,27.70
2022-08-03T08:37:40.671Z,27.78
2022-08-03T08:40:27.670Z,27.84
2022-08-03T08:43:12.950Z,27.90
2022-08-03T08:45:59.623Z,27.96
2022-08-03T08:48:46.782Z,27.98
2022-08-03T08:51:54.601Z,28.07
2022-08-03T08:54:45.094Z,28.19
2022-08-03T08:57:52.685Z,28.21
2022-08-03T09:00:38.114Z,28.32
2022-08-03T09:03:29.589Z,28.39
2022-08-03T09:06:16.422Z,28.42
2022-08-03T09:09:01.933Z,28.48
2022-08-03T09:12:00.829Z,28.50
2022-08-03T09:15:14.875Z,28.54
2022-08-03T09:17:57.139Z,28.57
2022-08-03T09:20:42.466Z,28.68
2022-08-03T09:24:01.058Z,28.70
2022-08-03T09:26:52.228Z,28.77
2022-08-03T09:29:51.199Z,28.89
2022-08-03T09:32:37.352Z,28.96
2022-08-03T09:35:51.547Z,29.04
2022-08-03T09:38:33.327Z,29.07
2022-08-03T09:41:19.627Z,29.08
2022-08-03T09:44:05.139Z,29.15
2022-08-03T09:46:50.322Z,29.09
2022-08-03T09:49:37.052Z,28.95
2022-08-03T09:52:37.653Z,28.99
2022-08-03T09:56:34.480Z,28.89
2022-08-03T09:58:31.741Z,28.73
2022-08-03T10:01:25.261Z,28.85
2022-08-03T10:04:16.736Z,28.73
2022-08-03T10:07:10.517Z,28.57
2022-08-03T10:10:29.601Z,28.50
2022-08-03T10:13:06.082Z,28.62
2022-08-03T10:16:21.351Z,28.68
2022-08-03T10:18:57.674Z,28.92
2022-08-03T10:21:49.784Z,28.93
2022-08-03T10:24:38.307Z,29.07
2022-08-03T10:27:25.844Z,28.99
2022-08-03T10:30:12.069Z,29.00
2022-08-03T10:33:51.719Z,29.21
2022-08-03T10:36:18.344Z,29.41
2022-08-03T10:39:04.240Z,29.21
2022-08-03T10:42:03.068Z,29.26
2022-08-03T10:44:52.857Z,29.05
2022-08-03T10:47:40.068Z,29.11
2022-08-03T10:50:56.623Z,29.07
2022-08-03T10:53:42.352Z,29.14
2022-08-03T10:56:51.207Z,29.19
2022-08-03T10:59:45.496Z,29.24
2022-08-03T11:03:06.634Z,29.28
2022-08-03T11:05:54.438Z,29.43
2022-08-03T11:08:39.938Z,29.30
2022-08-03T11:11:26.338Z,29.24
2022-08-03T11:14:21.943Z,29.37
2022-08-03T11:17:14.466Z,29.54
2022-08-03T11:20:00.456Z,29.47
2022-08-03T11:22:51.450Z,29.46
2022-08-03T11:26:18.848Z,29.63
2022-08-03T11:29:30.112Z,29.64
2022-08-03T11:32:39.917Z,29.65
2022-08-03T11:35:36.938Z,29.77
2022-08-03T11:38:24.635Z,29.85
2022-08-03T11:41:33.113Z,30.06
2022-08-03T11:44:40.971Z,29.98
2022-08-03T11:47:28.947Z,30.07
2022-08-03T11:50:17.439Z,29.95
2022-08-03T11:53:02.723Z,29.85
2022-08-03T11:55:53.511Z,29.91
2022-08-03T11:59:02.659Z,29.86
2022-08-03T12:02:09.928Z,29.62
2022-08-03T12:05:01.450Z,29.79
2022-08-03T12:08:03.994Z,29.85
2022-08-03T12:10:51.535Z,29.92
2022-08-03T12:14:37.373Z,30.15
2022-08-03T12:16:49.242Z,30.28
2022-08-03T12:19:44.557Z,30.24
2022-08-03T12:22:40.688Z,30.33
2022-08-03T12:25:38.754Z,30.16
2022-08-03T12:28:36.949Z,29.92
2022-08-03T12:31:23.798Z,29.82
2022-08-03T12:34:09.310Z,29.98
2022-08-03T12:36:59.264Z,29.93
2022-08-03T12:40:02.163Z,30.11
2022-08-03T12:42:49.331Z,30.13
2022-08-03T12:45:34.759Z,30.29
2022-08-03T12:48:19.902Z,30.46
2022-08-03T12:51:10.794Z,30.53
2022-08-03T12:53:57.829Z,30.63
2022-08-03T12:57:15.569Z,30.60
2022-08-03T13:00:21.633Z,30.65
2022-08-03T13:03:41.821Z,30.74
2022-08-03T13:06:25.854Z,30.55
2022-08-03T13:09:11.313Z,30.64
2022-08-03T13:12:20.955Z,30.51
2022-08-03T13:15:06.829Z,30.70
2022-08-03T13:17:52.658Z,30.74
2022-08-03T13:20:37.867Z,30.74
2022-08-03T13:23:23.038Z,30.56
2022-08-03T13:26:08.882Z,30.25
2022-08-03T13:28:54.006Z,30.22
2022-08-03T13:31:50.448Z,30.48
2022-08-03T13:34:37.906Z,30.68
2022-08-03T13:37:23.871Z,30.40
2022-08-03T13:40:11.580Z,30.45
2022-08-03T13:42:57.159Z,30.57
2022-08-03T13:45:47.530Z,30.41
2022-08-03T13:48:37.229Z,30.40
2022-08-03T13:51:23.470Z,30.54
2022-08-03T13:54:09.218Z,30.31
2022-08-03T13:56:57.816Z,30.22
2022-08-03T13:59:46.142Z,30.34
2022-08-03T14:02:34.431Z,30.26
2022-08-03T14:05:19.907Z,30.57
2022-08-03T14:08:06.824Z,30.60
2022-08-03T14:10:52.025Z,30.45
2022-08-03T14:13:38.466Z,30.49
2022-08-03T14:16:25.911Z,30.61
2022-08-03T14:19:12.601Z,30.68
2022-08-03T14:22:06.554Z,30.60
2022-08-03T14:24:52.670Z,30.59
2022-08-03T14:27:39.044Z,30.68
2022-08-03T14:30:24.582Z,30.81
2022-08-03T14:33:10.539Z,31.03
2022-08-03T14:35:55.953Z,30.99
2022-08-03T14:38:41.378Z,31.13
2022-08-03T14:41:27.590Z,31.23
2022-08-03T14:44:13.124Z,31.32
2022-08-03T14:46:58.470Z,31.38
2022-08-03T14:50:30.417Z,31.31
2022-08-03T14:52:49.570Z,31.14
2022-08-03T14:55:38.383Z,31.04
2022-08-03T14:58:27.827Z,31.17
2022-08-03T15:02:04.675Z,31.25
2022-08-03T15:04:21.751Z,31.28
2022-08-03T15:07:07.278Z,31.13
2022-08-03T15:09:52.648Z,31.18
2022-08-03T15:12:37.946Z,31.39
2022-08-03T15:15:23.343Z,31.25
2022-08-03T15:18:09.024Z,31.06
2022-08-03T15:20:55.297Z,30.80
2022-08-03T15:23:41.116Z,30.93
2022-08-03T15:26:32.947Z,30.99
2022-08-03T15:30:07.594Z,30.88
2022-08-03T15:32:26.002Z,30.62
2022-08-03T15:35:11.767Z,30.66
2022-08-03T15:37:57.506Z,30.73
2022-08-03T15:40:43.111Z,30.83
2022-08-03T15:43:29.373Z,30.82
2022-08-03T15:46:30.525Z,30.84
2022-08-03T15:49:16.977Z,30.83
2022-08-03T15:52:02.540Z,30.89
2022-08-03T15:54:47.582Z,30.82
2022-08-03T15:57:32.854Z,30.71
2022-08-03T16:00:18.574Z,30.72
2022-08-03T16:03:04.028Z,30.70
2022-08-03T16:05:49.397Z,30.65
2022-08-03T16:08:34.517Z,30.52
2022-08-03T16:11:19.892Z,30.91
2022-08-03T16:14:30.939Z,30.95
2022-08-03T16:17:11.005Z,30.66
2022-08-03T16:19:59.226Z,30.63
2022-08-03T16:22:48.225Z,30.41
2022-08-03T16:25:33.810Z,30.46
2022-08-03T16:28:19.485Z,30.59
2022-08-03T16:31:06.071Z,30.55
2022-08-03T16:33:51.208Z,30.33
2022-08-03T16:36:36.664Z,30.30
2022-08-03T16:39:21.947Z,30.29
2022-08-03T16:42:07.372Z,30.33
2022-08-03T16:44:52.561Z,30.23
2022-08-03T16:47:37.808Z,30.08
2022-08-03T16:50:25.540Z,30.31
2022-08-03T16:53:16.906Z,30.17
2022-08-03T16:56:06.710Z,29.91
2022-08-03T16:58:55.315Z,29.72
2022-08-03T17:01:41.102Z,29.57
2022-08-03T17:04:27.406Z,29.43
2022-08-03T17:07:16.654Z,29.42
2022-08-03T17:10:02.135Z,29.42
2022-08-03T17:12:47.794Z,29.56
2022-08-03T17:15:38.395Z,29.68
2022-08-03T17:18:47.487Z,29.47
2022-08-03T17:21:39.303Z,29.40
2022-08-03T17:24:31.120Z,29.25
2022-08-03T17:28:48.991Z,28.99
2022-08-03T17:30:47.904Z,28.91
2022-08-03T17:33:35.672Z,28.68
2022-08-03T17:36:22.610Z,28.55
2022-08-03T17:39:16.902Z,28.57
2022-08-03T17:42:05.236Z,28.54
2022-08-03T17:45:15.781Z,28.57
2022-08-03T17:48:01.125Z,28.56
2022-08-03T17:50:54.194Z,28.55
2022-08-03T17:53:49.571Z,28.57
2022-08-03T17:56:46.241Z,28.73
2022-08-03T18:00:32.639Z,29.29
2022-08-03T18:03:22.862Z,29.32
2022-08-03T18:06:12.506Z,29.10
2022-08-03T18:09:00.074Z,28.96
2022-08-03T18:11:58.113Z,28.87
2022-08-03T18:14:57.221Z,28.77
2022-08-03T18:17:55.821Z,28.65
2022-08-03T18:20:48.624Z,28.63
2022-08-03T18:23:37.257Z,28.56
2022-08-03T18:26:24.062Z,28.44
2022-08-03T18:29:12.562Z,28.35
2022-08-03T18:32:03.953Z,28.36
2022-08-03T18:35:07.618Z,28.28
2022-08-03T18:38:00.902Z,28.24
2022-08-03T18:40:48.480Z,28.22
2022-08-03T18:44:09.507Z,28.22
2022-08-03T18:47:04.472Z,28.21
2022-08-03T18:50:19.227Z,28.20
2022-08-03T18:54:01.840Z,28.17
2022-08-03T18:56:51.540Z,28.15
2022-08-03T19:00:16.674Z,28.07
2022-08-03T19:03:10.102Z,27.99
2022-08-03T19:06:08.613Z,27.93
2022-08-03T19:09:12.857Z,27.87
2022-08-03T19:12:12.526Z,27.83
2022-08-03T19:15:12.559Z,27.76
2022-08-03T19:17:58.531Z,27.70
2022-08-03T19:20:46.704Z,27.66
2022-08-03T19:23:34.089Z,27.63
2022-08-03T19:26:31.162Z,27.58
2022-08-03T19:29:20.203Z,27.52
2022-08-03T19:32:08.871Z,27.48
2022-08-03T19:34:55.340Z,27.44
2022-08-03T19:37:44.227Z,27.37
2022-08-03T19:40:33.857Z,27.33
2022-08-03T19:46:43.318Z,27.25
2022-08-03T19:52:43.747Z,27.18
2022-08-03T19:55:32.285Z,27.13
2022-08-03T19:58:24.535Z,27.10
2022-08-03T20:01:21.393Z,27.06
2022-08-03T20:04:07.036Z,27.02
2022-08-03T20:06:57.040Z,26.99
2022-08-03T20:09:44.609Z,26.96
2022-08-03T20:12:39.104Z,26.93
2022-08-03T20:15:31.340Z,26.90
2022-08-03T20:18:17.450Z,26.86
2022-08-03T20:21:14.808Z,26.83
2022-08-03T20:24:23.709Z,26.78
2022-08-03T20:27:14.786Z,26.76
2022-08-03T20:30:07.693Z,26.74
2022-08-03T20:32:53.080Z,26.71
2022-08-03T20:35:41.901Z,26.67
2022-08-03T20:38:31.322Z,26.66
2022-08-03T20:41:17.609Z,26.61
2022-08-03T20:44:04.378Z,26.59
2022-08-03T20:46:53.113Z,26.56
2022-08-03T20:49:46.018Z,26.54
2022-08-03T20:52:49.321Z,26.52
2022-08-03T20:55:47.518Z,26.48
2022-08-03T20:58:41.634Z,26.45
2022-08-03T21:01:36.179Z,26.43
2022-08-03T21:04:22.074Z,26.39
2022-08-03T21:07:16.628Z,26.35
2022-08-03T21:10:05.525Z,26.36
2022-08-03T21:13:10.601Z,27.21
2022-08-03T21:13:11.155Z,27.29
2022-08-03T21:13:22.586Z,26.35
2022-08-03T21:16:14.145Z,26.31
2022-08-03T21:19:03.339Z,26.31
2022-08-03T21:21:50.151Z,26.29
2022-08-03T21:24:40.500Z,26.27
2022-08-03T21:27:29.588Z,26.26
2022-08-03T21:30:15.356Z,26.24
2022-08-03T21:33:00.987Z,26.21
2022-08-03T21:35:46.533Z,26.20
2022-08-03T21:38:32.712Z,26.17
2022-08-03T21:41:17.648Z,26.17
2022-08-03T21:44:04.998Z,26.15
2022-08-03T21:46:53.286Z,26.15
2022-08-03T21:50:02.694Z,26.13
2022-08-03T21:52:51.010Z,26.08
2022-08-03T21:55:39.533Z,26.07
2022-08-03T21:58:32.140Z,26.06
2022-08-03T22:01:20.673Z,26.04
2022-08-03T22:04:07.384Z,26.02
2022-08-03T22:06:57.696Z,26.00
2022-08-03T22:09:51.354Z,25.99
2022-08-03T22:12:37.399Z,25.97
2022-08-03T22:15:23.041Z,25.96
2022-08-03T22:18:08.644Z,25.95
2022-08-03T22:20:56.095Z,25.95
2022-08-03T22:23:48.006Z,25.92
2022-08-03T22:26:36.009Z,25.92
2022-08-03T22:29:24.203Z,25.90
2022-08-03T22:32:10.012Z,25.89
2022-08-03T22:34:56.771Z,25.88
2022-08-03T22:37:48.407Z,25.87
2022-08-03T22:40:33.872Z,25.86
2022-08-03T22:43:24.371Z,25.84
2022-08-03T22:46:15.573Z,25.83
2022-08-03T22:49:02.246Z,25.81
2022-08-03T22:51:48.665Z,25.79
2022-08-03T22:54:35.335Z,25.74
2022-08-03T22:57:22.075Z,25.72
2022-08-03T23:00:13.340Z,25.71
2022-08-03T23:03:02.086Z,25.69
2022-08-03T23:06:02.320Z,25.65
2022-08-03T23:08:50.359Z,25.65
2022-08-03T23:11:37.953Z,25.63
2022-08-03T23:14:33.066Z,25.58
2022-08-03T23:17:20.411Z,25.59
2022-08-03T23:20:08.225Z,25.56
2022-08-03T23:22:54.703Z,25.53
2022-08-03T23:25:41.477Z,25.52
2022-08-03T23:28:29.123Z,25.52
2022-08-03T23:31:15.538Z,25.52
2022-08-03T23:34:19.545Z,25.51
2022-08-03T23:37:05.674Z,25.51
2022-08-03T23:39:52.869Z,25.52
2022-08-03T23:42:39.905Z,25.48
2022-08-03T23:45:27.552Z,25.45
2022-08-03T23:48:12.967Z,25.41
2022-08-03T23:51:06.597Z,25.38
2022-08-03T23:54:01.950Z,25.36
2022-08-03T23:57:15.920Z,25.35
